Time;durP1;ratioP1;P1;durP2;ratioP2;P2;SDS_P1;SDS_P2;PMS_P1;PMS_P2;Temp;Humidity;BMP_temperature;BMP_pressure;BME280_temperature;BME280_humidity;BME280_pressure;Samples;Min_cycle;Max_cycle;Signal;HPM_P1;HPM_P2
2022/03/21 00:02:17;;;;;;;10.00;6.80;;;;;;;;;;5012446;28;20215;-91
2022/03/21 00:04:44;;;;;;;10.97;6.90;;;;;;;;;;5021413;28;20277;-89
2022/03/21 00:07:12;;;;;;;9.47;6.57;;;;;;;;;;5023771;28;20195;-91
2022/03/21 00:09:39;;;;;;;12.60;7.73;;;;;;;;;;5017731;28;20242;-91
2022/03/21 00:12:08;;;;;;;10.50;6.80;;;;;;;;;;5026591;28;20280;-91
2022/03/21 00:14:36;;;;;;;10.67;6.70;;;;;;;;;;5022534;28;20235;-91
2022/03/21 00:17:03;;;;;;;10.40;6.80;;;;;;;;;;5012125;28;20257;-91
2022/03/21 00:19:31;;;;;;;9.73;6.37;;;;;;;;;;5011970;28;20210;-91
2022/03/21 00:21:58;;;;;;;9.07;7.00;;;;;;;;;;5023689;28;20206;-90
2022/03/21 00:24:25;;;;;;;13.23;7.67;;;;;;;;;;5025362;28;20293;-91
2022/03/21 00:26:52;;;;;;;9.13;6.13;;;;;;;;;;5011939;28;20208;-91
2022/03/21 00:29:22;;;;;;;10.13;7.27;;;;;;;;;;5021460;28;20206;-91
2022/03/21 00:31:50;;;;;;;10.57;6.13;;;;;;;;;;5038178;28;20207;-91
2022/03/21 00:34:19;;;;;;;9.27;6.37;;;;;;;;;;5031087;28;20318;-91
2022/03/21 00:36:46;;;;;;;10.80;6.80;;;;;;;;;;5030969;28;20195;-90
2022/03/21 00:39:13;;;;;;;9.37;6.27;;;;;;;;;;5032498;28;20208;-91
2022/03/21 00:41:41;;;;;;;14.93;8.00;;;;;;;;;;5023379;28;20618;-91
2022/03/21 00:44:09;;;;;;;10.47;6.33;;;;;;;;;;5031596;28;20227;-91
2022/03/21 00:46:37;;;;;;;9.47;6.17;;;;;;;;;;5021097;28;20233;-91
2022/03/21 00:49:08;;;;;;;8.67;6.33;;;;;;;;;;5015601;28;20211;-90
2022/03/21 00:51:35;;;;;;;9.40;6.50;;;;;;;;;;5031348;28;20203;-90
2022/03/21 00:54:02;;;;;;;10.23;6.87;;;;;;;;;;5028325;28;20230;-91
2022/03/21 00:56:30;;;;;;;10.07;6.63;;;;;;;;;;5034555;28;20282;-91
2022/03/21 00:58:57;;;;;;;7.47;6.00;;;;;;;;;;5011835;28;20208;-91
2022/03/21 01:01:24;;;;;;;10.23;6.43;;;;;;;;;;5011890;28;20215;-91
2022/03/21 01:03:53;;;;;;;8.27;6.33;;;;;;;;;;5023976;28;20760;-91
2022/03/21 01:06:22;;;;;;;11.40;7.50;;;;;;;;;;5030505;28;20234;-91
2022/03/21 01:08:49;;;;;;;8.73;6.60;;;;;;;;;;5014179;28;20212;-91
2022/03/21 01:11:16;;;;;;;9.03;6.67;;;;;;;;;;5021637;28;20271;-91
2022/03/21 01:13:44;;;;;;;11.03;6.73;;;;;;;;;;5022093;28;20301;-91
2022/03/21 01:16:11;;;;;;;9.53;6.13;;;;;;;;;;5015112;28;20266;-91
2022/03/21 01:18:38;;;;;;;8.50;5.93;;;;;;;;;;5020485;28;20207;-91
2022/03/21 01:21:07;;;;;;;10.27;6.90;;;;;;;;;;5030359;28;20598;-91
2022/03/21 01:23:34;;;;;;;9.60;5.93;;;;;;;;;;5029067;28;20223;-91
2022/03/21 01:26:02;;;;;;;9.57;6.93;;;;;;;;;;5033807;28;20592;-91
2022/03/21 01:28:29;;;;;;;9.10;6.27;;;;;;;;;;5031826;28;20611;-91
2022/03/21 01:30:56;;;;;;;8.67;5.90;;;;;;;;;;5042804;28;20206;-91
2022/03/21 01:33:23;;;;;;;9.07;5.97;;;;;;;;;;5025695;28;20734;-91
2022/03/21 01:35:51;;;;;;;9.27;6.50;;;;;;;;;;5034614;28;20689;-91
2022/03/21 01:38:19;;;;;;;6.87;5.60;;;;;;;;;;5033533;28;20249;-90
2022/03/21 01:40:47;;;;;;;9.97;6.67;;;;;;;;;;5051265;28;20624;-91
2022/03/21 01:43:14;;;;;;;7.83;5.67;;;;;;;;;;5018251;28;20222;-91
2022/03/21 01:45:41;;;;;;;7.77;6.00;;;;;;;;;;5034231;28;20274;-91
2022/03/21 01:48:10;;;;;;;9.07;6.00;;;;;;;;;;5032846;28;20645;-91
2022/03/21 01:50:37;;;;;;;8.77;6.67;;;;;;;;;;5032555;28;20206;-91
2022/03/21 01:55:50;;;;;;;9.47;7.10;;;;;;;;;;5015771;28;20651;-90
2022/03/21 01:58:19;;;;;;;9.70;6.60;;;;;;;;;;5026374;28;20253;-91
2022/03/21 02:00:46;;;;;;;8.13;6.10;;;;;;;;;;5027778;28;20264;-90
2022/03/21 02:03:14;;;;;;;11.13;7.23;;;;;;;;;;5029254;28;20215;-91
2022/03/21 02:05:43;;;;;;;9.97;7.03;;;;;;;;;;5029142;28;20222;-91
2022/03/21 02:08:10;;;;;;;8.33;6.00;;;;;;;;;;5033994;28;20219;-91
2022/03/21 02:10:38;;;;;;;9.57;6.70;;;;;;;;;;5024696;28;20203;-91
2022/03/21 02:13:07;;;;;;;10.63;7.07;;;;;;;;;;5039161;28;20288;-91
2022/03/21 02:15:34;;;;;;;8.07;5.93;;;;;;;;;;5032992;28;20222;-91
2022/03/21 02:18:03;;;;;;;8.30;6.10;;;;;;;;;;5034163;28;20206;-91
2022/03/21 02:20:31;;;;;;;10.23;6.73;;;;;;;;;;5030206;28;20658;-91
2022/03/21 02:23:01;;;;;;;10.77;6.77;;;;;;;;;;5032091;28;20206;-91
2022/03/21 02:25:32;;;;;;;10.33;6.80;;;;;;;;;;5027203;28;20210;-91
2022/03/21 02:28:01;;;;;;;9.67;6.73;;;;;;;;;;5018969;28;20213;-91
2022/03/21 02:30:30;;;;;;;10.40;7.03;;;;;;;;;;5033202;28;20553;-91
2022/03/21 02:32:57;;;;;;;9.33;6.77;;;;;;;;;;5015080;28;20211;-90
2022/03/21 02:35:26;;;;;;;10.17;6.93;;;;;;;;;;5018080;28;20272;-91
2022/03/21 02:37:54;;;;;;;10.37;6.73;;;;;;;;;;5032446;28;20260;-91
2022/03/21 02:40:21;;;;;;;8.67;6.57;;;;;;;;;;5040732;28;20211;-91
2022/03/21 02:42:50;;;;;;;9.93;6.40;;;;;;;;;;5023909;28;20641;-91
2022/03/21 02:45:17;;;;;;;9.13;6.23;;;;;;;;;;5016286;28;20702;-91
2022/03/21 02:47:44;;;;;;;11.00;6.90;;;;;;;;;;5024542;28;20211;-91
2022/03/21 02:50:14;;;;;;;9.43;6.33;;;;;;;;;;5032544;28;20202;-91
2022/03/21 02:52:43;;;;;;;8.53;5.80;;;;;;;;;;5032826;28;20214;-91
2022/03/21 02:55:10;;;;;;;10.80;6.40;;;;;;;;;;5030303;28;20253;-91
2022/03/21 02:57:38;;;;;;;10.03;6.77;;;;;;;;;;5024098;28;20215;-91
2022/03/21 03:00:07;;;;;;;7.97;5.40;;;;;;;;;;5021345;28;20207;-91
2022/03/21 03:02:34;;;;;;;10.30;6.07;;;;;;;;;;5013042;28;20273;-90
2022/03/21 03:05:02;;;;;;;9.10;6.00;;;;;;;;;;5014265;28;20293;-91
2022/03/21 03:07:29;;;;;;;9.07;5.53;;;;;;;;;;5020243;28;20203;-91
2022/03/21 03:09:56;;;;;;;9.40;7.10;;;;;;;;;;5021013;28;20253;-90
2022/03/21 03:12:24;;;;;;;10.73;7.80;;;;;;;;;;5027326;28;20222;-91
2022/03/21 03:14:51;;;;;;;9.57;6.63;;;;;;;;;;5026725;28;20231;-91
2022/03/21 03:17:20;;;;;;;8.93;6.30;;;;;;;;;;5027323;28;20274;-91
2022/03/21 03:19:47;;;;;;;11.23;5.50;;;;;;;;;;5012509;28;20203;-91
2022/03/21 03:22:15;;;;;;;10.13;6.37;;;;;;;;;;5013002;28;20211;-90
2022/03/21 03:24:42;;;;;;;7.87;5.50;;;;;;;;;;5023669;28;20696;-91
2022/03/21 03:27:09;;;;;;;10.17;6.60;;;;;;;;;;5015709;28;20198;-91
2022/03/21 03:29:37;;;;;;;9.17;6.83;;;;;;;;;;5032432;28;20280;-91
2022/03/21 03:32:05;;;;;;;9.00;6.23;;;;;;;;;;5030325;28;20222;-90
2022/03/21 03:34:34;;;;;;;9.03;6.50;;;;;;;;;;5019936;28;20222;-91
2022/03/21 03:37:01;;;;;;;10.03;6.70;;;;;;;;;;5021127;28;20218;-91
2022/03/21 03:39:29;;;;;;;9.17;5.97;;;;;;;;;;5025493;28;20256;-91
2022/03/21 03:41:56;;;;;;;11.10;5.97;;;;;;;;;;5026904;28;20604;-91
2022/03/21 03:44:25;;;;;;;9.43;6.77;;;;;;;;;;5019329;28;20222;-91
2022/03/21 03:46:52;;;;;;;10.33;6.73;;;;;;;;;;5014923;28;20199;-91
2022/03/21 03:49:19;;;;;;;9.33;6.60;;;;;;;;;;5012840;28;20211;-91
2022/03/21 03:51:48;;;;;;;8.77;6.20;;;;;;;;;;5020840;28;20202;-90
2022/03/21 03:54:15;;;;;;;8.10;5.87;;;;;;;;;;5024211;28;20222;-91
2022/03/21 03:56:43;;;;;;;10.33;6.73;;;;;;;;;;5015868;28;20277;-91
2022/03/21 03:59:10;;;;;;;8.97;6.30;;;;;;;;;;5012189;28;20206;-90
2022/03/21 04:01:38;;;;;;;9.17;6.00;;;;;;;;;;5027504;28;20234;-91
2022/03/21 04:04:05;;;;;;;7.80;6.00;;;;;;;;;;5020995;28;20238;-91
2022/03/21 04:06:32;;;;;;;8.80;5.80;;;;;;;;;;5030027;28;20262;-91
2022/03/21 04:09:01;;;;;;;10.27;6.47;;;;;;;;;;5024567;28;20206;-91
2022/03/21 04:11:28;;;;;;;8.30;6.83;;;;;;;;;;5025926;28;20547;-91
2022/03/21 04:13:55;;;;;;;9.73;6.53;;;;;;;;;;5011848;28;20779;-91
2022/03/21 04:16:23;;;;;;;8.77;6.30;;;;;;;;;;5013420;28;20235;-91
2022/03/21 04:18:50;;;;;;;9.17;6.23;;;;;;;;;;5019172;28;20218;-91
2022/03/21 04:21:18;;;;;;;7.60;6.00;;;;;;;;;;5031849;28;20261;-92
2022/03/21 04:23:45;;;;;;;9.60;6.47;;;;;;;;;;5031353;28;20234;-91
2022/03/21 04:26:14;;;;;;;8.17;6.30;;;;;;;;;;5023581;28;20812;-91
2022/03/21 04:28:41;;;;;;;7.60;6.00;;;;;;;;;;5019708;28;20211;-91
2022/03/21 04:31:08;;;;;;;7.67;5.93;;;;;;;;;;5032049;28;20269;-91
2022/03/21 04:33:35;;;;;;;9.10;6.77;;;;;;;;;;5022904;28;20263;-91
2022/03/21 04:36:03;;;;;;;9.33;6.37;;;;;;;;;;5019825;28;20643;-90
2022/03/21 04:38:30;;;;;;;8.13;6.03;;;;;;;;;;5011718;28;20257;-91
2022/03/21 04:40:57;;;;;;;7.83;6.00;;;;;;;;;;5012153;28;20223;-91
2022/03/21 04:43:26;;;;;;;10.03;7.20;;;;;;;;;;5016188;28;20223;-91
2022/03/21 04:45:53;;;;;;;10.23;7.07;;;;;;;;;;5021212;28;20313;-91
2022/03/21 04:48:21;;;;;;;9.00;6.60;;;;;;;;;;5022424;28;20207;-91
2022/03/21 04:50:48;;;;;;;10.03;7.13;;;;;;;;;;5016042;28;20207;-91
2022/03/21 04:53:16;;;;;;;9.27;7.40;;;;;;;;;;5022185;28;20365;-91
2022/03/21 04:55:43;;;;;;;7.97;5.73;;;;;;;;;;5031662;28;20202;-91
2022/03/21 04:58:11;;;;;;;9.53;7.27;;;;;;;;;;5026937;28;20256;-90
2022/03/21 05:00:40;;;;;;;10.70;7.73;;;;;;;;;;5035130;28;20241;-91
2022/03/21 05:03:08;;;;;;;8.23;7.10;;;;;;;;;;5027662;28;20214;-91
2022/03/21 05:05:36;;;;;;;10.57;7.50;;;;;;;;;;5024902;28;20229;-91
2022/03/21 05:08:03;;;;;;;10.23;7.43;;;;;;;;;;5030763;28;20260;-91
2022/03/21 05:10:31;;;;;;;9.57;6.60;;;;;;;;;;5014183;28;20739;-90
2022/03/21 05:12:59;;;;;;;9.13;6.63;;;;;;;;;;5022290;28;20213;-91
2022/03/21 05:15:26;;;;;;;8.33;6.97;;;;;;;;;;5029591;28;20205;-91
2022/03/21 05:17:55;;;;;;;11.10;9.07;;;;;;;;;;5028525;28;20303;-91
2022/03/21 05:20:23;;;;;;;10.43;7.53;;;;;;;;;;5035479;28;20211;-91
2022/03/21 05:31:02;;;;;;;9.83;6.43;;;;;;;;;;5035268;28;20201;-91
2022/03/21 05:36:17;;;;;;;10.50;6.57;;;;;;;;;;5014493;28;20223;-91
2022/03/21 05:38:45;;;;;;;11.20;6.63;;;;;;;;;;5025225;28;20211;-90
2022/03/21 05:41:12;;;;;;;7.60;6.10;;;;;;;;;;5026414;28;20646;-91
2022/03/21 05:43:40;;;;;;;10.67;6.57;;;;;;;;;;5034266;28;20677;-91
2022/03/21 05:46:08;;;;;;;10.83;6.60;;;;;;;;;;5029571;28;20260;-90
2022/03/21 05:48:51;;;;;;;9.13;6.20;;;;;;;;;;5025394;28;20215;-90
2022/03/21 05:51:19;;;;;;;10.50;6.90;;;;;;;;;;5022917;28;20289;-90
2022/03/21 05:53:46;;;;;;;9.80;6.37;;;;;;;;;;5026669;28;20278;-90
2022/03/21 05:56:14;;;;;;;11.77;7.80;;;;;;;;;;5031192;28;20207;-90
2022/03/21 06:00:20;;;;;;;11.77;7.23;;;;;;;;;;5025941;28;20229;-91
2022/03/21 06:01:47;;;;;;;9.90;7.27;;;;;;;;;;5027515;28;20688;-90
2022/03/21 06:04:16;;;;;;;9.43;6.87;;;;;;;;;;5020793;28;20317;-90
2022/03/21 06:06:44;;;;;;;10.83;7.27;;;;;;;;;;5025989;28;20223;-90
2022/03/21 06:09:11;;;;;;;9.50;6.63;;;;;;;;;;5034432;28;20215;-89
2022/03/21 06:11:38;;;;;;;11.20;7.40;;;;;;;;;;5032217;28;20207;-90
2022/03/21 06:14:06;;;;;;;9.93;6.83;;;;;;;;;;5029938;28;20761;-91
2022/03/21 06:16:33;;;;;;;12.40;7.17;;;;;;;;;;5013863;28;20223;-90
2022/03/21 06:19:09;;;;;;;12.13;8.13;;;;;;;;;;5027302;28;20233;-90
2022/03/21 06:21:38;;;;;;;10.43;7.00;;;;;;;;;;5029776;28;20238;-90
2022/03/21 06:24:06;;;;;;;10.10;7.60;;;;;;;;;;5016079;28;20610;-90
2022/03/21 06:26:33;;;;;;;11.03;7.67;;;;;;;;;;5026053;28;20715;-90
2022/03/21 06:29:00;;;;;;;11.47;7.73;;;;;;;;;;5036955;28;20207;-90
2022/03/21 06:31:27;;;;;;;9.70;7.93;;;;;;;;;;5027848;28;20282;-90
2022/03/21 06:33:55;;;;;;;12.03;7.70;;;;;;;;;;5022452;28;20820;-90
2022/03/21 06:36:22;;;;;;;11.27;7.93;;;;;;;;;;5031184;28;20684;-90
2022/03/21 06:38:51;;;;;;;10.00;7.03;;;;;;;;;;5038721;28;20207;-90
2022/03/21 06:41:20;;;;;;;10.33;7.57;;;;;;;;;;5020637;28;20642;-91
2022/03/21 06:43:47;;;;;;;11.50;7.60;;;;;;;;;;5024397;28;20632;-90
2022/03/21 06:46:15;;;;;;;11.43;7.40;;;;;;;;;;5028711;28;20246;-90
2022/03/21 06:48:42;;;;;;;9.03;7.00;;;;;;;;;;5038751;28;20210;-90
2022/03/21 06:51:10;;;;;;;9.17;7.07;;;;;;;;;;5033351;28;20217;-90
2022/03/21 06:53:37;;;;;;;11.43;7.60;;;;;;;;;;5032739;28;20230;-90
2022/03/21 06:56:06;;;;;;;9.90;6.77;;;;;;;;;;5034340;28;20287;-90
2022/03/21 06:58:34;;;;;;;13.77;7.83;;;;;;;;;;5032108;28;20219;-90
2022/03/21 07:01:01;;;;;;;10.73;7.97;;;;;;;;;;5037907;28;20699;-90
2022/03/21 07:03:28;;;;;;;11.33;7.50;;;;;;;;;;5034502;28;20235;-90
2022/03/21 07:05:56;;;;;;;11.33;7.80;;;;;;;;;;5028581;28;20210;-90
2022/03/21 07:08:23;;;;;;;10.50;8.37;;;;;;;;;;5032206;28;20203;-90
2022/03/21 07:10:50;;;;;;;11.00;8.23;;;;;;;;;;5033015;28;20206;-90
2022/03/21 07:13:19;;;;;;;11.00;7.90;;;;;;;;;;5034238;28;20230;-90
2022/03/21 07:15:46;;;;;;;11.37;8.40;;;;;;;;;;5024410;28;20215;-89
2022/03/21 07:18:14;;;;;;;10.40;7.83;;;;;;;;;;5029765;28;20222;-90
2022/03/21 07:20:43;;;;;;;10.73;7.67;;;;;;;;;;5032867;28;20622;-90
2022/03/21 07:23:10;;;;;;;10.40;7.60;;;;;;;;;;5027469;28;20241;-90
2022/03/21 07:25:38;;;;;;;10.47;7.60;;;;;;;;;;5029670;28;20207;-90
2022/03/21 07:28:05;;;;;;;10.93;8.33;;;;;;;;;;5020989;28;20203;-90
2022/03/21 07:30:34;;;;;;;10.47;7.90;;;;;;;;;;5012857;28;20266;-91
2022/03/21 07:33:01;;;;;;;12.10;8.10;;;;;;;;;;5021734;28;20264;-90
2022/03/21 07:35:29;;;;;;;9.23;6.97;;;;;;;;;;5020517;28;20254;-89
2022/03/21 07:37:57;;;;;;;10.17;7.97;;;;;;;;;;5012372;28;20223;-90
2022/03/21 07:40:26;;;;;;;10.77;7.77;;;;;;;;;;5019381;28;20664;-89
2022/03/21 07:42:54;;;;;;;12.50;7.40;;;;;;;;;;5031073;28;20285;-90
2022/03/21 07:48:08;;;;;;;10.27;6.87;;;;;;;;;;5012583;28;20270;-90
2022/03/21 07:50:35;;;;;;;10.90;8.47;;;;;;;;;;5018522;28;20626;-90
2022/03/21 07:53:03;;;;;;;10.60;7.67;;;;;;;;;;5015667;28;20199;-90
2022/03/21 07:55:31;;;;;;;10.93;7.73;;;;;;;;;;5032160;28;20428;-90
2022/03/21 07:57:59;;;;;;;10.70;8.00;;;;;;;;;;5031624;28;20221;-90
2022/03/21 08:00:26;;;;;;;12.03;7.63;;;;;;;;;;5028044;28;20269;-90
2022/03/21 08:02:54;;;;;;;11.40;8.13;;;;;;;;;;5011907;28;20199;-90
2022/03/21 08:05:23;;;;;;;11.90;8.20;;;;;;;;;;5012318;28;20199;-90
2022/03/21 08:07:51;;;;;;;10.60;7.50;;;;;;;;;;5030232;28;20572;-90
2022/03/21 08:10:19;;;;;;;13.23;7.27;;;;;;;;;;5023730;28;20203;-90
2022/03/21 08:12:47;;;;;;;12.07;7.60;;;;;;;;;;5032010;28;20241;-90
2022/03/21 08:15:14;;;;;;;11.80;7.37;;;;;;;;;;5031328;28;20284;-90
2022/03/21 08:17:52;;;;;;;10.87;7.40;;;;;;;;;;5036035;28;20275;-89
2022/03/21 08:20:19;;;;;;;10.53;7.57;;;;;;;;;;5028142;28;20673;-90
2022/03/21 08:22:48;;;;;;;11.83;7.17;;;;;;;;;;5025132;28;20202;-90
2022/03/21 08:25:16;;;;;;;12.47;7.80;;;;;;;;;;5034771;28;20276;-90
2022/03/21 08:27:44;;;;;;;10.00;7.90;;;;;;;;;;5041008;28;20722;-90
2022/03/21 08:30:12;;;;;;;9.67;7.27;;;;;;;;;;5019642;28;20233;-91
2022/03/21 08:32:39;;;;;;;10.03;7.50;;;;;;;;;;5040558;28;20256;-90
2022/03/21 08:35:07;;;;;;;12.13;8.37;;;;;;;;;;5015850;28;20327;-90
2022/03/21 08:37:35;;;;;;;11.53;8.40;;;;;;;;;;5015767;28;20644;-90
2022/03/21 08:40:04;;;;;;;11.77;7.90;;;;;;;;;;5031049;28;20202;-90
2022/03/21 08:42:32;;;;;;;11.00;8.37;;;;;;;;;;5032536;28;20878;-90
2022/03/21 08:44:59;;;;;;;15.37;8.63;;;;;;;;;;5017137;28;20227;-89
2022/03/21 08:47:26;;;;;;;12.37;8.20;;;;;;;;;;5020566;28;20650;-91
2022/03/21 08:49:53;;;;;;;14.07;8.40;;;;;;;;;;5026026;28;20681;-90
2022/03/21 08:52:21;;;;;;;11.40;7.83;;;;;;;;;;5024241;28;20246;-90
2022/03/21 08:54:48;;;;;;;11.93;8.37;;;;;;;;;;5015782;28;20704;-90
2022/03/21 08:57:17;;;;;;;12.07;8.50;;;;;;;;;;5032025;28;20218;-91
2022/03/21 08:59:45;;;;;;;13.43;7.77;;;;;;;;;;5019843;28;20203;-91
2022/03/21 09:02:13;;;;;;;10.50;7.77;;;;;;;;;;5035486;28;20293;-90
2022/03/21 09:04:41;;;;;;;10.57;7.67;;;;;;;;;;5024618;28;20243;-91
2022/03/21 09:07:09;;;;;;;12.93;9.00;;;;;;;;;;5019614;28;20199;-90
2022/03/21 09:09:36;;;;;;;10.53;7.83;;;;;;;;;;5031719;28;20715;-92
2022/03/21 09:12:04;;;;;;;13.37;7.60;;;;;;;;;;5031737;28;20210;-90
2022/03/21 09:14:32;;;;;;;11.03;8.80;;;;;;;;;;5018535;28;20291;-90
2022/03/21 09:17:00;;;;;;;14.10;8.70;;;;;;;;;;5026505;28;20257;-90
2022/03/21 09:19:29;;;;;;;10.80;8.30;;;;;;;;;;5011839;28;20780;-91
2022/03/21 09:21:56;;;;;;;10.97;7.70;;;;;;;;;;5011728;28;20203;-90
2022/03/21 09:24:24;;;;;;;11.30;8.10;;;;;;;;;;5026753;28;20222;-90
2022/03/21 09:26:51;;;;;;;10.97;8.67;;;;;;;;;;5024441;28;20248;-90
2022/03/21 09:29:19;;;;;;;12.53;8.77;;;;;;;;;;5031180;28;20207;-90
2022/03/21 09:31:48;;;;;;;10.63;8.10;;;;;;;;;;5026911;28;20204;-90
2022/03/21 09:34:17;;;;;;;13.10;9.07;;;;;;;;;;5037780;28;20226;-90
2022/03/21 09:36:45;;;;;;;13.20;8.77;;;;;;;;;;5031309;28;20285;-90
2022/03/21 09:39:12;;;;;;;12.93;8.70;;;;;;;;;;5030778;28;20824;-90
2022/03/21 09:41:40;;;;;;;12.27;9.17;;;;;;;;;;5027262;28;20265;-89
2022/03/21 09:44:09;;;;;;;12.07;7.67;;;;;;;;;;5020857;28;21031;-90
2022/03/21 09:46:36;;;;;;;10.43;7.80;;;;;;;;;;5015812;28;20246;-90
2022/03/21 09:49:07;;;;;;;12.10;8.70;;;;;;;;;;5029525;28;20364;-90
2022/03/21 09:51:35;;;;;;;12.00;8.40;;;;;;;;;;5022255;28;20227;-90
2022/03/21 09:54:03;;;;;;;13.13;8.83;;;;;;;;;;5021059;28;20223;-90
2022/03/21 09:56:30;;;;;;;13.40;8.90;;;;;;;;;;5030195;28;20207;-90
2022/03/21 09:59:00;;;;;;;12.00;8.20;;;;;;;;;;5017403;28;20285;-90
2022/03/21 10:01:28;;;;;;;12.63;9.30;;;;;;;;;;5010852;28;20223;-90
2022/03/21 10:03:55;;;;;;;13.63;9.03;;;;;;;;;;5017583;28;20693;-90
2022/03/21 10:06:33;;;;;;;12.57;9.13;;;;;;;;;;5035573;28;20273;-90
2022/03/21 10:09:07;;;;;;;12.20;8.60;;;;;;;;;;5019078;28;20717;-91
2022/03/21 10:11:34;;;;;;;12.20;9.37;;;;;;;;;;5011161;28;20202;-90
2022/03/21 10:14:17;;;;;;;13.83;9.07;;;;;;;;;;5020412;28;20254;-91
2022/03/21 10:16:50;;;;;;;13.53;9.20;;;;;;;;;;5021740;28;20200;-90
2022/03/21 10:19:18;;;;;;;12.93;8.90;;;;;;;;;;5010652;28;20281;-90
2022/03/21 10:22:00;;;;;;;12.30;8.93;;;;;;;;;;5016073;28;20280;-90
2022/03/21 10:24:27;;;;;;;13.60;8.97;;;;;;;;;;5028476;28;20235;-90
2022/03/21 10:26:55;;;;;;;12.23;8.67;;;;;;;;;;5027850;28;20202;-90
2022/03/21 10:29:23;;;;;;;11.57;9.50;;;;;;;;;;5030011;28;20579;-90
2022/03/21 10:31:52;;;;;;;12.17;8.97;;;;;;;;;;5032104;28;20207;-90
2022/03/21 10:34:20;;;;;;;13.40;9.13;;;;;;;;;;5037905;28;20219;-90
2022/03/21 10:37:01;;;;;;;12.30;8.90;;;;;;;;;;5020763;28;20272;-90
2022/03/21 10:39:30;;;;;;;13.20;9.37;;;;;;;;;;5029841;28;20276;-90
2022/03/21 10:41:58;;;;;;;12.40;9.47;;;;;;;;;;5017715;28;20256;-90
2022/03/21 10:44:26;;;;;;;14.10;8.80;;;;;;;;;;5020533;28;20642;-90
2022/03/21 10:46:54;;;;;;;12.40;9.27;;;;;;;;;;5029856;28;20213;-90
2022/03/21 10:49:29;;;;;;;12.93;9.07;;;;;;;;;;5028266;28;20281;-90
2022/03/21 10:51:58;;;;;;;11.90;8.60;;;;;;;;;;5017392;28;20214;-89
2022/03/21 10:54:40;;;;;;;13.20;9.57;;;;;;;;;;5009593;28;20674;-90
2022/03/21 10:57:08;;;;;;;12.77;8.97;;;;;;;;;;5009808;28;20632;-90
2022/03/21 10:59:36;;;;;;;13.53;9.30;;;;;;;;;;5024243;28;20223;-90
2022/03/21 11:02:14;;;;;;;12.03;8.47;;;;;;;;;;5024982;28;20203;-90
2022/03/21 11:04:42;;;;;;;14.07;9.00;;;;;;;;;;5024319;28;20765;-89
2022/03/21 11:07:11;;;;;;;12.83;8.60;;;;;;;;;;5029340;28;20662;-90
2022/03/21 11:09:40;;;;;;;15.13;8.87;;;;;;;;;;5025640;28;20650;-90
2022/03/21 11:12:09;;;;;;;10.80;8.43;;;;;;;;;;5017914;28;20658;-91
2022/03/21 11:14:37;;;;;;;12.13;8.33;;;;;;;;;;5011210;28;20222;-89
2022/03/21 11:17:06;;;;;;;13.53;8.97;;;;;;;;;;5022611;28;20226;-90
2022/03/21 11:19:33;;;;;;;12.40;8.90;;;;;;;;;;5022050;28;20300;-89
2022/03/21 11:22:01;;;;;;;12.60;8.93;;;;;;;;;;5030125;28;21839;-90
2022/03/21 11:24:28;;;;;;;11.60;9.27;;;;;;;;;;5040848;28;20300;-89
2022/03/21 11:27:00;;;;;;;12.50;8.73;;;;;;;;;;5030756;28;20207;-89
2022/03/21 11:29:34;;;;;;;11.30;8.97;;;;;;;;;;5033359;28;20199;-90
2022/03/21 11:32:22;;;;;;;14.07;9.30;;;;;;;;;;5027804;28;20211;-89
2022/03/21 11:34:56;;;;;;;13.07;9.53;;;;;;;;;;5024646;28;20689;-90
2022/03/21 11:37:25;;;;;;;11.57;8.53;;;;;;;;;;5026106;28;20667;-90
2022/03/21 11:40:07;;;;;;;13.83;9.40;;;;;;;;;;5029757;28;20313;-91
2022/03/21 11:42:36;;;;;;;14.40;9.17;;;;;;;;;;5019476;28;20252;-90
2022/03/21 11:45:23;;;;;;;12.97;8.67;;;;;;;;;;5027361;28;20715;-90
2022/03/21 11:47:50;;;;;;;12.17;8.47;;;;;;;;;;5029651;28;20668;-89
2022/03/21 11:50:28;;;;;;;11.53;8.67;;;;;;;;;;5032625;28;20199;-90
2022/03/21 11:53:09;;;;;;;13.17;9.43;;;;;;;;;;5025606;28;20214;-89
2022/03/21 11:55:41;;;;;;;12.37;8.43;;;;;;;;;;5026863;28;20210;-90
2022/03/21 11:58:35;;;;;;;12.30;8.07;;;;;;;;;;5024983;28;20203;-90
2022/03/21 12:01:05;;;;;;;10.27;7.90;;;;;;;;;;4988261;28;20222;-90
2022/03/21 12:03:32;;;;;;;11.07;8.23;;;;;;;;;;5027836;28;20226;-90
2022/03/21 12:06:00;;;;;;;11.20;7.83;;;;;;;;;;5028733;28;20297;-91
2022/03/21 12:08:34;;;;;;;16.63;8.13;;;;;;;;;;5027258;28;20190;-90
2022/03/21 12:11:01;;;;;;;13.07;7.70;;;;;;;;;;5026749;28;20233;-91
2022/03/21 12:13:39;;;;;;;11.50;7.67;;;;;;;;;;5031352;28;20218;-90
2022/03/21 12:16:19;;;;;;;13.47;7.53;;;;;;;;;;5027375;28;20211;-90
2022/03/21 12:18:59;;;;;;;12.13;7.40;;;;;;;;;;5019011;28;20633;-90
2022/03/21 12:21:27;;;;;;;9.10;6.87;;;;;;;;;;5014862;28;20573;-90
2022/03/21 12:24:13;;;;;;;10.90;6.83;;;;;;;;;;5029849;28;20226;-90
2022/03/21 12:26:48;;;;;;;9.67;6.67;;;;;;;;;;5025262;28;20796;-90
2022/03/21 12:29:34;;;;;;;12.80;7.43;;;;;;;;;;5023794;28;20653;-89
2022/03/21 12:32:20;;;;;;;10.70;6.33;;;;;;;;;;5027704;28;20669;-89
2022/03/21 12:34:49;;;;;;;10.40;5.87;;;;;;;;;;5033051;28;20595;-89
2022/03/21 12:37:25;;;;;;;10.07;6.33;;;;;;;;;;5030194;28;20207;-90
2022/03/21 12:39:53;;;;;;;9.20;5.83;;;;;;;;;;5031422;28;20241;-90
2022/03/21 12:42:21;;;;;;;10.07;6.30;;;;;;;;;;5032047;28;20207;-90
2022/03/21 12:44:48;;;;;;;8.73;5.87;;;;;;;;;;5027692;28;20273;-90
2022/03/21 12:47:17;;;;;;;8.63;6.70;;;;;;;;;;5029524;28;20249;-89
2022/03/21 12:49:49;;;;;;;11.53;6.93;;;;;;;;;;5033355;28;20673;-91
2022/03/21 12:52:26;;;;;;;10.23;6.43;;;;;;;;;;5030427;28;20206;-90
2022/03/21 12:54:55;;;;;;;10.60;6.80;;;;;;;;;;5024596;28;20233;-90
2022/03/21 12:57:22;;;;;;;11.30;6.93;;;;;;;;;;5029257;28;20725;-90
2022/03/21 12:59:49;;;;;;;11.03;7.10;;;;;;;;;;5029318;28;20280;-89
2022/03/21 13:02:27;;;;;;;13.47;6.53;;;;;;;;;;5026215;28;20508;-89
2022/03/21 13:10:34;;;;;;;10.20;6.20;;;;;;;;;;5025079;28;20369;-89
2022/03/21 13:13:03;;;;;;;15.90;6.20;;;;;;;;;;5031507;28;20619;-89
2022/03/21 13:15:30;;;;;;;8.93;6.20;;;;;;;;;;5028041;28;20257;-90
2022/03/21 13:18:01;;;;;;;13.17;6.87;;;;;;;;;;5028590;28;20257;-91
2022/03/21 13:20:33;;;;;;;12.73;6.40;;;;;;;;;;5041776;28;20222;-90
2022/03/21 13:23:01;;;;;;;12.43;6.30;;;;;;;;;;5038930;28;20209;-89
2022/03/21 13:25:30;;;;;;;9.33;6.33;;;;;;;;;;5031046;28;20725;-90
2022/03/21 13:28:14;;;;;;;10.13;7.03;;;;;;;;;;5036438;28;20253;-90
2022/03/21 13:30:55;;;;;;;13.00;6.60;;;;;;;;;;5036285;28;20206;-90
2022/03/21 13:33:23;;;;;;;10.87;6.50;;;;;;;;;;5032345;28;20222;-89
2022/03/21 13:35:55;;;;;;;9.07;5.67;;;;;;;;;;5035727;28;20293;-90
2022/03/21 13:38:23;;;;;;;11.53;5.97;;;;;;;;;;5024488;28;20294;-90
2022/03/21 13:40:51;;;;;;;11.77;6.10;;;;;;;;;;5034120;28;20214;-90
2022/03/21 13:43:20;;;;;;;12.73;6.03;;;;;;;;;;5028853;28;20270;-91
2022/03/21 13:45:48;;;;;;;8.87;5.43;;;;;;;;;;5028600;28;20213;-89
2022/03/21 13:48:30;;;;;;;9.73;5.63;;;;;;;;;;5033842;28;20199;-89
2022/03/21 13:51:01;;;;;;;13.27;6.63;;;;;;;;;;5034335;28;20260;-89
2022/03/21 14:05:41;;;;;;;8.40;5.77;;;;;;;;;;5071823;28;20229;-36
2022/03/21 14:08:13;;;;;;;12.97;6.10;;;;;;;;;;5072272;28;20285;-39
2022/03/21 14:10:42;;;;;;;9.87;5.90;;;;;;;;;;5068229;28;20225;-36
2022/03/21 14:13:16;;;;;;;13.93;6.03;;;;;;;;;;5074305;28;20275;-37
2022/03/21 14:15:45;;;;;;;11.97;7.00;;;;;;;;;;5069034;28;20221;-39
2022/03/21 14:18:12;;;;;;;10.20;5.77;;;;;;;;;;5061098;28;20250;-37
2022/03/21 14:20:39;;;;;;;11.23;6.17;;;;;;;;;;5067905;28;20274;-33
2022/03/21 14:23:07;;;;;;;9.37;6.37;;;;;;;;;;5093126;28;20333;-38
2022/03/21 14:28:21;;;;;;;10.97;5.90;;;;;;;;;;5079802;28;20234;-33
2022/03/21 14:30:49;;;;;;;9.80;5.63;;;;;;;;;;5071436;28;20259;-37
2022/03/21 14:33:16;;;;;;;17.50;6.37;;;;;;;;;;5058855;28;20202;-35
2022/03/21 14:35:44;;;;;;;13.47;6.20;;;;;;;;;;5076172;28;20225;-33
2022/03/21 14:38:11;;;;;;;7.10;5.00;;;;;;;;;;5065831;28;20209;-39
2022/03/21 14:40:40;;;;;;;13.50;6.07;;;;;;;;;;5052792;28;20217;-33
2022/03/21 14:43:08;;;;;;;10.13;5.60;;;;;;;;;;5067726;28;20206;-30
2022/03/21 14:45:35;;;;;;;11.87;6.03;;;;;;;;;;5089019;28;20216;-31
2022/03/21 14:48:03;;;;;;;9.20;5.83;;;;;;;;;;5089225;28;20204;-35
2022/03/21 14:50:30;;;;;;;12.57;5.83;;;;;;;;;;5060171;28;20313;-33
2022/03/21 14:52:58;;;;;;;11.63;6.43;;;;;;;;;;5080326;28;20201;-35
2022/03/21 14:55:25;;;;;;;8.93;5.97;;;;;;;;;;5073583;28;20319;-35
2022/03/21 14:57:53;;;;;;;8.23;5.67;;;;;;;;;;5066056;28;20202;-38
2022/03/21 15:00:21;;;;;;;7.90;4.77;;;;;;;;;;5081694;28;20217;-29
2022/03/21 15:02:48;;;;;;;9.57;5.50;;;;;;;;;;5073188;28;20713;-31
2022/03/21 15:05:15;;;;;;;12.33;5.90;;;;;;;;;;5073222;28;20233;-32
2022/03/21 15:07:43;;;;;;;9.73;5.57;;;;;;;;;;5065922;28;20635;-34
2022/03/21 15:10:23;;;;;;;13.90;6.00;;;;;;;;;;5065013;28;20614;-34
2022/03/21 15:12:50;;;;;;;8.23;5.30;;;;;;;;;;5073081;28;20243;-35
2022/03/21 15:15:19;;;;;;;8.47;5.07;;;;;;;;;;5063612;28;20268;-34
2022/03/21 15:17:47;;;;;;;9.27;4.43;;;;;;;;;;5069082;28;20212;-35
2022/03/21 15:20:15;;;;;;;12.40;5.07;;;;;;;;;;5073004;28;20267;-35
2022/03/21 15:22:42;;;;;;;10.43;4.77;;;;;;;;;;5065986;28;20202;-34